sensor_id;sensor_type;location;lat;lon;timestamp;P1;durP1;ratioP1;P2;durP2;ratioP2
7158;SDS011;63175;52.374;13.132;2022-11-14T00:00:22;40.87;;;26.80;;
7158;SDS011;63175;52.374;13.132;2022-11-14T00:02:50;42.23;;;27.63;;
7158;SDS011;63175;52.374;13.132;2022-11-14T00:05:17;40.67;;;26.77;;
7158;SDS011;63175;52.374;13.132;2022-11-14T00:07:44;37.80;;;26.67;;
7158;SDS011;63175;52.374;13.132;2022-11-14T00:10:11;37.80;;;25.43;;
7158;SDS011;63175;52.374;13.132;2022-11-14T00:12:40;40.73;;;25.60;;
7158;SDS011;63175;52.374;13.132;2022-11-14T00:15:07;43.67;;;26.23;;
7158;SDS011;63175;52.374;13.132;2022-11-14T00:17:35;39.40;;;26.03;;
7158;SDS011;63175;52.374;13.132;2022-11-14T00:20:02;41.07;;;25.10;;
7158;SDS011;63175;52.374;13.132;2022-11-14T00:22:30;42.37;;;27.53;;
7158;SDS011;63175;52.374;13.132;2022-11-14T00:24:57;43.03;;;28.17;;
7158;SDS011;63175;52.374;13.132;2022-11-14T00:27:24;42.27;;;27.20;;
7158;SDS011;63175;52.374;13.132;2022-11-14T00:29:52;44.50;;;28.03;;
7158;SDS011;63175;52.374;13.132;2022-11-14T00:32:19;48.87;;;29.30;;
7158;SDS011;63175;52.374;13.132;2022-11-14T00:34:46;46.87;;;28.57;;
7158;SDS011;63175;52.374;13.132;2022-11-14T00:37:13;47.17;;;28.80;;
7158;SDS011;63175;52.374;13.132;2022-11-14T00:39:40;43.23;;;29.23;;
7158;SDS011;63175;52.374;13.132;2022-11-14T00:42:07;44.57;;;29.00;;
7158;SDS011;63175;52.374;13.132;2022-11-14T00:44:34;47.30;;;29.53;;
7158;SDS011;63175;52.374;13.132;2022-11-14T00:47:02;41.83;;;27.20;;
7158;SDS011;63175;52.374;13.132;2022-11-14T00:49:29;41.33;;;28.60;;
7158;SDS011;63175;52.374;13.132;2022-11-14T00:51:56;49.77;;;28.40;;
7158;SDS011;63175;52.374;13.132;2022-11-14T00:54:22;46.10;;;28.60;;
7158;SDS011;63175;52.374;13.132;2022-11-14T00:56:50;51.57;;;32.57;;
7158;SDS011;63175;52.374;13.132;2022-11-14T00:59:17;49.70;;;30.57;;
7158;SDS011;63175;52.374;13.132;2022-11-14T01:01:44;48.10;;;29.83;;
7158;SDS011;63175;52.374;13.132;2022-11-14T01:04:12;51.40;;;31.57;;
7158;SDS011;63175;52.374;13.132;2022-11-14T01:06:39;55.43;;;31.80;;
7158;SDS011;63175;52.374;13.132;2022-11-14T01:09:06;49.90;;;29.80;;
7158;SDS011;63175;52.374;13.132;2022-11-14T01:11:33;58.17;;;31.50;;
7158;SDS011;63175;52.374;13.132;2022-11-14T01:14:00;54.83;;;30.80;;
7158;SDS011;63175;52.374;13.132;2022-11-14T01:16:27;49.20;;;28.43;;
7158;SDS011;63175;52.374;13.132;2022-11-14T01:18:54;42.90;;;28.10;;
7158;SDS011;63175;52.374;13.132;2022-11-14T01:21:22;47.87;;;29.03;;
7158;SDS011;63175;52.374;13.132;2022-11-14T01:23:49;50.67;;;29.70;;
7158;SDS011;63175;52.374;13.132;2022-11-14T01:26:15;47.90;;;29.93;;
7158;SDS011;63175;52.374;13.132;2022-11-14T01:28:42;49.50;;;29.40;;
7158;SDS011;63175;52.374;13.132;2022-11-14T01:31:10;49.70;;;29.90;;
7158;SDS011;63175;52.374;13.132;2022-11-14T01:33:38;51.07;;;31.07;;
7158;SDS011;63175;52.374;13.132;2022-11-14T01:36:05;53.20;;;32.27;;
7158;SDS011;63175;52.374;13.132;2022-11-14T01:38:34;44.20;;;28.93;;
7158;SDS011;63175;52.374;13.132;2022-11-14T01:41:02;46.63;;;29.70;;
7158;SDS011;63175;52.374;13.132;2022-11-14T01:43:30;49.17;;;30.80;;
7158;SDS011;63175;52.374;13.132;2022-11-14T01:46:00;47.33;;;28.37;;
7158;SDS011;63175;52.374;13.132;2022-11-14T01:48:34;47.40;;;28.80;;
7158;SDS011;63175;52.374;13.132;2022-11-14T01:51:22;47.63;;;28.63;;
7158;SDS011;63175;52.374;13.132;2022-11-14T01:53:55;50.80;;;29.13;;
7158;SDS011;63175;52.374;13.132;2022-11-14T01:56:25;48.27;;;30.20;;
7158;SDS011;63175;52.374;13.132;2022-11-14T01:58:57;47.10;;;29.13;;
7158;SDS011;63175;52.374;13.132;2022-11-14T02:01:28;52.77;;;31.33;;
7158;SDS011;63175;52.374;13.132;2022-11-14T02:03:57;46.33;;;29.97;;
7158;SDS011;63175;52.374;13.132;2022-11-14T02:06:27;55.17;;;31.77;;
7158;SDS011;63175;52.374;13.132;2022-11-14T02:08:57;55.93;;;31.87;;
7158;SDS011;63175;52.374;13.132;2022-11-14T02:11:27;55.20;;;32.23;;
7158;SDS011;63175;52.374;13.132;2022-11-14T02:13:56;53.93;;;30.13;;
7158;SDS011;63175;52.374;13.132;2022-11-14T02:16:24;55.23;;;31.93;;
7158;SDS011;63175;52.374;13.132;2022-11-14T02:18:51;57.53;;;32.93;;
7158;SDS011;63175;52.374;13.132;2022-11-14T02:21:19;58.53;;;32.87;;
7158;SDS011;63175;52.374;13.132;2022-11-14T02:23:46;57.37;;;32.87;;
7158;SDS011;63175;52.374;13.132;2022-11-14T02:26:15;58.23;;;31.80;;
7158;SDS011;63175;52.374;13.132;2022-11-14T02:28:43;62.40;;;34.30;;
7158;SDS011;63175;52.374;13.132;2022-11-14T02:31:10;59.03;;;33.93;;
7158;SDS011;63175;52.374;13.132;2022-11-14T02:33:37;57.10;;;32.07;;
7158;SDS011;63175;52.374;13.132;2022-11-14T02:36:05;66.00;;;35.53;;
7158;SDS011;63175;52.374;13.132;2022-11-14T02:38:33;55.10;;;31.30;;
7158;SDS011;63175;52.374;13.132;2022-11-14T02:41:00;57.13;;;30.90;;
7158;SDS011;63175;52.374;13.132;2022-11-14T02:43:28;68.00;;;34.20;;
7158;SDS011;63175;52.374;13.132;2022-11-14T02:45:55;63.23;;;32.40;;
7158;SDS011;63175;52.374;13.132;2022-11-14T02:48:22;57.27;;;32.27;;
7158;SDS011;63175;52.374;13.132;2022-11-14T02:50:48;56.63;;;31.93;;
7158;SDS011;63175;52.374;13.132;2022-11-14T02:53:15;59.47;;;31.47;;
7158;SDS011;63175;52.374;13.132;2022-11-14T02:55:43;62.10;;;30.63;;
7158;SDS011;63175;52.374;13.132;2022-11-14T02:58:10;51.30;;;30.33;;
7158;SDS011;63175;52.374;13.132;2022-11-14T03:00:37;60.10;;;32.40;;
7158;SDS011;63175;52.374;13.132;2022-11-14T03:03:04;59.70;;;32.17;;
7158;SDS011;63175;52.374;13.132;2022-11-14T03:05:31;51.93;;;28.23;;
7158;SDS011;63175;52.374;13.132;2022-11-14T03:07:58;64.23;;;33.70;;
7158;SDS011;63175;52.374;13.132;2022-11-14T03:10:25;64.97;;;33.40;;
7158;SDS011;63175;52.374;13.132;2022-11-14T03:12:53;60.17;;;32.90;;
7158;SDS011;63175;52.374;13.132;2022-11-14T03:15:21;62.17;;;32.87;;
7158;SDS011;63175;52.374;13.132;2022-11-14T03:17:48;50.03;;;29.00;;
7158;SDS011;63175;52.374;13.132;2022-11-14T03:20:16;54.70;;;28.70;;
7158;SDS011;63175;52.374;13.132;2022-11-14T03:22:43;48.50;;;27.27;;
7158;SDS011;63175;52.374;13.132;2022-11-14T03:25:10;51.33;;;28.80;;
7158;SDS011;63175;52.374;13.132;2022-11-14T03:27:37;55.60;;;29.87;;
7158;SDS011;63175;52.374;13.132;2022-11-14T03:30:06;56.57;;;32.90;;
7158;SDS011;63175;52.374;13.132;2022-11-14T03:32:33;55.00;;;32.63;;
7158;SDS011;63175;52.374;13.132;2022-11-14T03:35:00;58.53;;;32.30;;
7158;SDS011;63175;52.374;13.132;2022-11-14T03:37:27;56.70;;;31.30;;
7158;SDS011;63175;52.374;13.132;2022-11-14T03:39:54;60.47;;;30.83;;
7158;SDS011;63175;52.374;13.132;2022-11-14T03:42:21;56.77;;;31.03;;
7158;SDS011;63175;52.374;13.132;2022-11-14T03:44:47;52.10;;;29.97;;
7158;SDS011;63175;52.374;13.132;2022-11-14T03:47:16;52.60;;;31.00;;
7158;SDS011;63175;52.374;13.132;2022-11-14T03:49:42;48.27;;;27.53;;
7158;SDS011;63175;52.374;13.132;2022-11-14T03:52:09;59.90;;;32.63;;
7158;SDS011;63175;52.374;13.132;2022-11-14T03:54:36;63.73;;;31.73;;
7158;SDS011;63175;52.374;13.132;2022-11-14T03:57:03;54.57;;;30.13;;
7158;SDS011;63175;52.374;13.132;2022-11-14T03:59:31;59.00;;;31.20;;
7158;SDS011;63175;52.374;13.132;2022-11-14T04:01:58;62.00;;;31.57;;
7158;SDS011;63175;52.374;13.132;2022-11-14T04:04:26;48.47;;;27.77;;
7158;SDS011;63175;52.374;13.132;2022-11-14T04:06:53;52.60;;;29.70;;
7158;SDS011;63175;52.374;13.132;2022-11-14T04:09:20;64.67;;;32.43;;
7158;SDS011;63175;52.374;13.132;2022-11-14T04:11:47;56.83;;;31.37;;
7158;SDS011;63175;52.374;13.132;2022-11-14T04:14:14;52.43;;;30.27;;
7158;SDS011;63175;52.374;13.132;2022-11-14T04:16:41;47.40;;;28.90;;
7158;SDS011;63175;52.374;13.132;2022-11-14T04:19:07;54.77;;;29.33;;
7158;SDS011;63175;52.374;13.132;2022-11-14T04:21:36;56.60;;;31.50;;
7158;SDS011;63175;52.374;13.132;2022-11-14T04:24:03;55.53;;;29.97;;
7158;SDS011;63175;52.374;13.132;2022-11-14T04:26:30;55.80;;;30.70;;
7158;SDS011;63175;52.374;13.132;2022-11-14T04:28:56;52.70;;;30.00;;
7158;SDS011;63175;52.374;13.132;2022-11-14T04:31:23;59.47;;;31.50;;
7158;SDS011;63175;52.374;13.132;2022-11-14T04:33:50;52.53;;;30.30;;
7158;SDS011;63175;52.374;13.132;2022-11-14T04:36:17;58.40;;;31.47;;
7158;SDS011;63175;52.374;13.132;2022-11-14T04:38:45;63.23;;;31.60;;
7158;SDS011;63175;52.374;13.132;2022-11-14T04:41:12;68.20;;;32.13;;
7158;SDS011;63175;52.374;13.132;2022-11-14T04:43:39;55.47;;;29.50;;
7158;SDS011;63175;52.374;13.132;2022-11-14T04:46:06;52.40;;;28.33;;
7158;SDS011;63175;52.374;13.132;2022-11-14T04:48:32;54.13;;;31.10;;
7158;SDS011;63175;52.374;13.132;2022-11-14T04:50:59;66.87;;;33.77;;
7158;SDS011;63175;52.374;13.132;2022-11-14T04:53:26;61.00;;;32.07;;
7158;SDS011;63175;52.374;13.132;2022-11-14T04:55:54;51.90;;;30.23;;
7158;SDS011;63175;52.374;13.132;2022-11-14T04:58:21;51.77;;;29.10;;
7158;SDS011;63175;52.374;13.132;2022-11-14T05:00:48;58.17;;;30.13;;
7158;SDS011;63175;52.374;13.132;2022-11-14T05:03:15;57.27;;;29.57;;
7158;SDS011;63175;52.374;13.132;2022-11-14T05:05:42;58.83;;;30.67;;
7158;SDS011;63175;52.374;13.132;2022-11-14T05:08:09;58.83;;;29.53;;
7158;SDS011;63175;52.374;13.132;2022-11-14T05:10:36;55.70;;;28.90;;
7158;SDS011;63175;52.374;13.132;2022-11-14T05:13:04;50.13;;;27.47;;
7158;SDS011;63175;52.374;13.132;2022-11-14T05:15:31;53.60;;;28.03;;
7158;SDS011;63175;52.374;13.132;2022-11-14T05:17:58;55.90;;;28.20;;
7158;SDS011;63175;52.374;13.132;2022-11-14T05:20:24;55.77;;;28.73;;
7158;SDS011;63175;52.374;13.132;2022-11-14T05:22:52;55.00;;;30.10;;
7158;SDS011;63175;52.374;13.132;2022-11-14T05:25:19;56.03;;;29.90;;
7158;SDS011;63175;52.374;13.132;2022-11-14T05:27:46;74.07;;;33.87;;
7158;SDS011;63175;52.374;13.132;2022-11-14T05:30:15;64.37;;;31.07;;
7158;SDS011;63175;52.374;13.132;2022-11-14T05:32:42;56.20;;;30.77;;
7158;SDS011;63175;52.374;13.132;2022-11-14T05:35:09;57.83;;;29.83;;
7158;SDS011;63175;52.374;13.132;2022-11-14T05:37:36;55.77;;;28.47;;
7158;SDS011;63175;52.374;13.132;2022-11-14T05:40:03;61.07;;;32.37;;
7158;SDS011;63175;52.374;13.132;2022-11-14T05:42:31;61.43;;;33.10;;
7158;SDS011;63175;52.374;13.132;2022-11-14T05:44:58;68.70;;;30.40;;
7158;SDS011;63175;52.374;13.132;2022-11-14T05:47:26;63.70;;;30.83;;
7158;SDS011;63175;52.374;13.132;2022-11-14T05:49:53;59.13;;;31.23;;
7158;SDS011;63175;52.374;13.132;2022-11-14T05:52:20;61.57;;;31.27;;
7158;SDS011;63175;52.374;13.132;2022-11-14T05:54:46;55.13;;;29.30;;
7158;SDS011;63175;52.374;13.132;2022-11-14T05:57:13;55.40;;;28.30;;
7158;SDS011;63175;52.374;13.132;2022-11-14T05:59:40;56.90;;;28.57;;
7158;SDS011;63175;52.374;13.132;2022-11-14T06:02:07;55.10;;;30.30;;
7158;SDS011;63175;52.374;13.132;2022-11-14T06:04:35;58.30;;;28.37;;
7158;SDS011;63175;52.374;13.132;2022-11-14T06:07:03;62.20;;;31.27;;
7158;SDS011;63175;52.374;13.132;2022-11-14T06:09:29;60.50;;;29.70;;
7158;SDS011;63175;52.374;13.132;2022-11-14T06:11:56;55.07;;;28.70;;
7158;SDS011;63175;52.374;13.132;2022-11-14T06:14:23;52.73;;;28.63;;
7158;SDS011;63175;52.374;13.132;2022-11-14T06:16:50;67.63;;;32.13;;
7158;SDS011;63175;52.374;13.132;2022-11-14T06:19:17;66.70;;;33.00;;
7158;SDS011;63175;52.374;13.132;2022-11-14T06:21:47;61.03;;;31.00;;
7158;SDS011;63175;52.374;13.132;2022-11-14T06:24:14;59.20;;;32.20;;
7158;SDS011;63175;52.374;13.132;2022-11-14T06:26:40;65.83;;;33.10;;
7158;SDS011;63175;52.374;13.132;2022-11-14T06:29:08;61.13;;;30.50;;
7158;SDS011;63175;52.374;13.132;2022-11-14T06:31:35;69.83;;;30.77;;
7158;SDS011;63175;52.374;13.132;2022-11-14T06:34:03;62.30;;;30.90;;
7158;SDS011;63175;52.374;13.132;2022-11-14T06:36:30;57.07;;;29.37;;
7158;SDS011;63175;52.374;13.132;2022-11-14T06:38:58;64.33;;;31.80;;
7158;SDS011;63175;52.374;13.132;2022-11-14T06:41:25;65.57;;;31.53;;
7158;SDS011;63175;52.374;13.132;2022-11-14T06:43:52;59.40;;;29.97;;
7158;SDS011;63175;52.374;13.132;2022-11-14T06:46:19;67.67;;;32.43;;
7158;SDS011;63175;52.374;13.132;2022-11-14T06:48:47;56.03;;;29.97;;
7158;SDS011;63175;52.374;13.132;2022-11-14T06:51:15;61.93;;;29.90;;
7158;SDS011;63175;52.374;13.132;2022-11-14T06:53:42;61.80;;;30.03;;
7158;SDS011;63175;52.374;13.132;2022-11-14T06:56:11;64.87;;;27.87;;
7158;SDS011;63175;52.374;13.132;2022-11-14T06:58:40;63.87;;;30.73;;
7158;SDS011;63175;52.374;13.132;2022-11-14T07:01:10;67.60;;;32.70;;
7158;SDS011;63175;52.374;13.132;2022-11-14T07:03:38;64.27;;;32.47;;
7158;SDS011;63175;52.374;13.132;2022-11-14T07:06:05;55.37;;;28.90;;
7158;SDS011;63175;52.374;13.132;2022-11-14T07:08:33;60.03;;;31.80;;
7158;SDS011;63175;52.374;13.132;2022-11-14T07:11:01;60.33;;;31.07;;
7158;SDS011;63175;52.374;13.132;2022-11-14T07:13:30;57.93;;;31.30;;
7158;SDS011;63175;52.374;13.132;2022-11-14T07:15:58;59.70;;;31.57;;
7158;SDS011;63175;52.374;13.132;2022-11-14T07:18:25;56.53;;;29.63;;
7158;SDS011;63175;52.374;13.132;2022-11-14T07:20:56;58.27;;;28.40;;
7158;SDS011;63175;52.374;13.132;2022-11-14T07:23:23;58.97;;;31.30;;
7158;SDS011;63175;52.374;13.132;2022-11-14T07:25:50;61.10;;;30.53;;
7158;SDS011;63175;52.374;13.132;2022-11-14T07:28:17;59.87;;;29.80;;
7158;SDS011;63175;52.374;13.132;2022-11-14T07:30:46;65.83;;;31.60;;
7158;SDS011;63175;52.374;13.132;2022-11-14T07:33:13;65.30;;;32.73;;
7158;SDS011;63175;52.374;13.132;2022-11-14T07:35:40;62.53;;;32.10;;
7158;SDS011;63175;52.374;13.132;2022-11-14T07:38:07;57.00;;;30.67;;
7158;SDS011;63175;52.374;13.132;2022-11-14T07:40:33;51.23;;;28.07;;
7158;SDS011;63175;52.374;13.132;2022-11-14T07:43:00;60.33;;;30.87;;
7158;SDS011;63175;52.374;13.132;2022-11-14T07:45:28;54.63;;;29.80;;
7158;SDS011;63175;52.374;13.132;2022-11-14T07:47:56;63.00;;;30.93;;
7158;SDS011;63175;52.374;13.132;2022-11-14T07:50:25;62.70;;;30.57;;
7158;SDS011;63175;52.374;13.132;2022-11-14T07:52:53;59.70;;;29.47;;
7158;SDS011;63175;52.374;13.132;2022-11-14T07:55:21;60.13;;;29.40;;
7158;SDS011;63175;52.374;13.132;2022-11-14T07:57:51;57.30;;;30.10;;
7158;SDS011;63175;52.374;13.132;2022-11-14T08:00:18;55.37;;;27.93;;
7158;SDS011;63175;52.374;13.132;2022-11-14T08:02:45;64.40;;;31.50;;
7158;SDS011;63175;52.374;13.132;2022-11-14T08:05:13;54.33;;;30.70;;
7158;SDS011;63175;52.374;13.132;2022-11-14T08:07:40;55.70;;;29.90;;
7158;SDS011;63175;52.374;13.132;2022-11-14T08:10:07;54.77;;;30.37;;
7158;SDS011;63175;52.374;13.132;2022-11-14T08:12:36;58.93;;;30.77;;
7158;SDS011;63175;52.374;13.132;2022-11-14T08:15:04;63.97;;;33.43;;
7158;SDS011;63175;52.374;13.132;2022-11-14T08:17:32;56.40;;;30.00;;
7158;SDS011;63175;52.374;13.132;2022-11-14T08:19:58;56.40;;;29.23;;
7158;SDS011;63175;52.374;13.132;2022-11-14T08:22:27;62.37;;;30.00;;
7158;SDS011;63175;52.374;13.132;2022-11-14T08:24:55;65.30;;;31.60;;
7158;SDS011;63175;52.374;13.132;2022-11-14T08:27:22;61.20;;;31.70;;
7158;SDS011;63175;52.374;13.132;2022-11-14T08:29:49;57.00;;;30.60;;
7158;SDS011;63175;52.374;13.132;2022-11-14T08:32:16;56.57;;;30.97;;
7158;SDS011;63175;52.374;13.132;2022-11-14T08:34:43;49.87;;;29.40;;
7158;SDS011;63175;52.374;13.132;2022-11-14T08:37:10;67.93;;;33.57;;
7158;SDS011;63175;52.374;13.132;2022-11-14T08:39:39;57.97;;;30.40;;
7158;SDS011;63175;52.374;13.132;2022-11-14T08:42:06;59.67;;;30.77;;
7158;SDS011;63175;52.374;13.132;2022-11-14T08:44:33;55.83;;;31.17;;
7158;SDS011;63175;52.374;13.132;2022-11-14T08:46:59;53.43;;;29.07;;
7158;SDS011;63175;52.374;13.132;2022-11-14T08:49:28;59.47;;;31.40;;
7158;SDS011;63175;52.374;13.132;2022-11-14T08:51:55;53.87;;;29.27;;
7158;SDS011;63175;52.374;13.132;2022-11-14T08:54:21;53.70;;;29.67;;
7158;SDS011;63175;52.374;13.132;2022-11-14T08:56:50;56.23;;;30.90;;
7158;SDS011;63175;52.374;13.132;2022-11-14T08:59:17;58.27;;;30.93;;
7158;SDS011;63175;52.374;13.132;2022-11-14T09:01:44;59.23;;;32.33;;
7158;SDS011;63175;52.374;13.132;2022-11-14T09:04:10;51.93;;;30.43;;
7158;SDS011;63175;52.374;13.132;2022-11-14T09:06:37;54.50;;;30.37;;
7158;SDS011;63175;52.374;13.132;2022-11-14T09:09:04;54.77;;;28.20;;
7158;SDS011;63175;52.374;13.132;2022-11-14T09:11:31;61.93;;;32.73;;
7158;SDS011;63175;52.374;13.132;2022-11-14T09:13:59;56.70;;;31.67;;
7158;SDS011;63175;52.374;13.132;2022-11-14T09:16:26;51.63;;;28.67;;
7158;SDS011;63175;52.374;13.132;2022-11-14T09:18:53;52.03;;;28.73;;
7158;SDS011;63175;52.374;13.132;2022-11-14T09:21:20;59.23;;;30.10;;
7158;SDS011;63175;52.374;13.132;2022-11-14T09:23:47;50.80;;;28.03;;
7158;SDS011;63175;52.374;13.132;2022-11-14T09:26:14;58.47;;;30.30;;
7158;SDS011;63175;52.374;13.132;2022-11-14T09:28:42;55.90;;;29.90;;
7158;SDS011;63175;52.374;13.132;2022-11-14T09:31:11;49.40;;;26.50;;
7158;SDS011;63175;52.374;13.132;2022-11-14T09:33:39;57.87;;;30.43;;
7158;SDS011;63175;52.374;13.132;2022-11-14T09:36:07;58.50;;;29.60;;
7158;SDS011;63175;52.374;13.132;2022-11-14T09:38:40;57.07;;;30.50;;
7158;SDS011;63175;52.374;13.132;2022-11-14T09:41:15;50.33;;;28.80;;
7158;SDS011;63175;52.374;13.132;2022-11-14T09:43:59;51.70;;;28.70;;
7158;SDS011;63175;52.374;13.132;2022-11-14T09:46:43;55.83;;;28.53;;
7158;SDS011;63175;52.374;13.132;2022-11-14T09:49:17;50.63;;;28.10;;
7158;SDS011;63175;52.374;13.132;2022-11-14T09:51:52;47.37;;;25.57;;
7158;SDS011;63175;52.374;13.132;2022-11-14T09:54:25;46.60;;;28.53;;
7158;SDS011;63175;52.374;13.132;2022-11-14T09:56:54;45.67;;;26.53;;
7158;SDS011;63175;52.374;13.132;2022-11-14T09:59:21;52.83;;;30.60;;
7158;SDS011;63175;52.374;13.132;2022-11-14T10:01:50;45.20;;;27.20;;
7158;SDS011;63175;52.374;13.132;2022-11-14T10:04:24;53.67;;;29.20;;
7158;SDS011;63175;52.374;13.132;2022-11-14T10:07:06;48.60;;;28.90;;
7158;SDS011;63175;52.374;13.132;2022-11-14T10:09:52;49.87;;;27.63;;
7158;SDS011;63175;52.374;13.132;2022-11-14T10:12:29;50.27;;;27.17;;
7158;SDS011;63175;52.374;13.132;2022-11-14T10:15:09;46.20;;;27.07;;
7158;SDS011;63175;52.374;13.132;2022-11-14T10:18:04;41.20;;;24.67;;
7158;SDS011;63175;52.374;13.132;2022-11-14T10:20:41;44.23;;;24.07;;
7158;SDS011;63175;52.374;13.132;2022-11-14T10:23:28;44.00;;;25.43;;
7158;SDS011;63175;52.374;13.132;2022-11-14T10:26:07;42.53;;;23.20;;
7158;SDS011;63175;52.374;13.132;2022-11-14T10:28:41;44.40;;;26.10;;
7158;SDS011;63175;52.374;13.132;2022-11-14T10:31:18;35.67;;;22.90;;
7158;SDS011;63175;52.374;13.132;2022-11-14T10:33:58;39.83;;;24.00;;
7158;SDS011;63175;52.374;13.132;2022-11-14T10:36:35;37.43;;;24.10;;
7158;SDS011;63175;52.374;13.132;2022-11-14T10:39:13;41.63;;;23.30;;
7158;SDS011;63175;52.374;13.132;2022-11-14T10:41:45;37.20;;;23.23;;
7158;SDS011;63175;52.374;13.132;2022-11-14T10:44:15;39.33;;;23.23;;
7158;SDS011;63175;52.374;13.132;2022-11-14T10:46:46;40.80;;;24.57;;
7158;SDS011;63175;52.374;13.132;2022-11-14T10:49:18;35.10;;;22.20;;
7158;SDS011;63175;52.374;13.132;2022-11-14T10:51:49;44.43;;;25.13;;
7158;SDS011;63175;52.374;13.132;2022-11-14T10:54:20;40.60;;;23.93;;
7158;SDS011;63175;52.374;13.132;2022-11-14T10:56:52;35.23;;;22.50;;
7158;SDS011;63175;52.374;13.132;2022-11-14T10:59:20;35.20;;;22.90;;
7158;SDS011;63175;52.374;13.132;2022-11-14T11:01:52;37.13;;;23.77;;
7158;SDS011;63175;52.374;13.132;2022-11-14T11:04:23;39.00;;;23.70;;
7158;SDS011;63175;52.374;13.132;2022-11-14T11:06:53;36.97;;;23.17;;
7158;SDS011;63175;52.374;13.132;2022-11-14T11:09:21;36.37;;;22.80;;
7158;SDS011;63175;52.374;13.132;2022-11-14T11:12:08;38.93;;;23.97;;
7158;SDS011;63175;52.374;13.132;2022-11-14T11:14:41;36.13;;;22.07;;
7158;SDS011;63175;52.374;13.132;2022-11-14T11:17:15;36.73;;;21.97;;
7158;SDS011;63175;52.374;13.132;2022-11-14T11:19:48;37.60;;;21.57;;
7158;SDS011;63175;52.374;13.132;2022-11-14T11:22:28;37.03;;;23.13;;
7158;SDS011;63175;52.374;13.132;2022-11-14T11:25:00;30.93;;;20.30;;
7158;SDS011;63175;52.374;13.132;2022-11-14T11:27:28;35.57;;;21.60;;
7158;SDS011;63175;52.374;13.132;2022-11-14T11:30:06;41.50;;;24.33;;
7158;SDS011;63175;52.374;13.132;2022-11-14T11:32:42;36.83;;;22.57;;
7158;SDS011;63175;52.374;13.132;2022-11-14T11:35:11;36.10;;;21.70;;
7158;SDS011;63175;52.374;13.132;2022-11-14T11:37:41;36.17;;;21.33;;
7158;SDS011;63175;52.374;13.132;2022-11-14T11:40:14;31.53;;;20.60;;
7158;SDS011;63175;52.374;13.132;2022-11-14T11:42:45;37.30;;;21.33;;
7158;SDS011;63175;52.374;13.132;2022-11-14T11:45:18;31.13;;;20.97;;
7158;SDS011;63175;52.374;13.132;2022-11-14T11:47:47;34.57;;;22.10;;
7158;SDS011;63175;52.374;13.132;2022-11-14T11:50:21;31.87;;;21.53;;
7158;SDS011;63175;52.374;13.132;2022-11-14T11:52:51;32.23;;;21.47;;
7158;SDS011;63175;52.374;13.132;2022-11-14T11:55:28;36.50;;;21.77;;
7158;SDS011;63175;52.374;13.132;2022-11-14T11:58:00;37.17;;;22.70;;
7158;SDS011;63175;52.374;13.132;2022-11-14T12:00:30;35.73;;;22.00;;
7158;SDS011;63175;52.374;13.132;2022-11-14T12:02:58;31.97;;;19.07;;
7158;SDS011;63175;52.374;13.132;2022-11-14T12:05:30;32.60;;;21.13;;
7158;SDS011;63175;52.374;13.132;2022-11-14T12:08:05;27.90;;;18.97;;
7158;SDS011;63175;52.374;13.132;2022-11-14T12:10:40;36.97;;;23.50;;
7158;SDS011;63175;52.374;13.132;2022-11-14T12:16:14;32.93;;;21.20;;
7158;SDS011;63175;52.374;13.132;2022-11-14T12:18:57;36.70;;;21.03;;
7158;SDS011;63175;52.374;13.132;2022-11-14T12:24:53;32.67;;;20.67;;
7158;SDS011;63175;52.374;13.132;2022-11-14T12:27:34;31.33;;;20.33;;
7158;SDS011;63175;52.374;13.132;2022-11-14T12:30:17;33.20;;;21.50;;
7158;SDS011;63175;52.374;13.132;2022-11-14T12:32:47;33.17;;;19.47;;
7158;SDS011;63175;52.374;13.132;2022-11-14T12:35:19;33.80;;;20.23;;
7158;SDS011;63175;52.374;13.132;2022-11-14T12:37:51;29.60;;;19.00;;
7158;SDS011;63175;52.374;13.132;2022-11-14T12:40:22;32.70;;;20.43;;
7158;SDS011;63175;52.374;13.132;2022-11-14T12:42:52;27.87;;;18.60;;
7158;SDS011;63175;52.374;13.132;2022-11-14T12:48:31;24.90;;;16.10;;
7158;SDS011;63175;52.374;13.132;2022-11-14T12:51:00;22.33;;;16.60;;
7158;SDS011;63175;52.374;13.132;2022-11-14T12:53:42;22.17;;;15.63;;
7158;SDS011;63175;52.374;13.132;2022-11-14T12:59:36;29.27;;;17.87;;
7158;SDS011;63175;52.374;13.132;2022-11-14T13:05:30;25.77;;;16.90;;
7158;SDS011;63175;52.374;13.132;2022-11-14T13:08:15;22.33;;;16.07;;
7158;SDS011;63175;52.374;13.132;2022-11-14T13:10:58;29.43;;;17.70;;
7158;SDS011;63175;52.374;13.132;2022-11-14T13:13:25;23.03;;;16.17;;
7158;SDS011;63175;52.374;13.132;2022-11-14T13:16:20;21.93;;;16.30;;
7158;SDS011;63175;52.374;13.132;2022-11-14T13:19:11;26.60;;;16.93;;
7158;SDS011;63175;52.374;13.132;2022-11-14T13:22:22;24.27;;;17.10;;
7158;SDS011;63175;52.374;13.132;2022-11-14T13:25:14;22.13;;;16.50;;
7158;SDS011;63175;52.374;13.132;2022-11-14T13:27:45;21.63;;;15.90;;
7158;SDS011;63175;52.374;13.132;2022-11-14T13:30:12;22.20;;;15.63;;
7158;SDS011;63175;52.374;13.132;2022-11-14T13:38:13;22.90;;;15.13;;
7158;SDS011;63175;52.374;13.132;2022-11-14T13:40:58;20.80;;;16.30;;
7158;SDS011;63175;52.374;13.132;2022-11-14T13:43:48;21.30;;;14.87;;
7158;SDS011;63175;52.374;13.132;2022-11-14T13:46:26;23.30;;;16.67;;
7158;SDS011;63175;52.374;13.132;2022-11-14T13:49:03;20.57;;;15.10;;
7158;SDS011;63175;52.374;13.132;2022-11-14T13:51:51;21.30;;;15.70;;
7158;SDS011;63175;52.374;13.132;2022-11-14T13:54:19;24.03;;;16.20;;
7158;SDS011;63175;52.374;13.132;2022-11-14T13:56:50;24.13;;;15.17;;
7158;SDS011;63175;52.374;13.132;2022-11-14T13:59:30;21.50;;;15.70;;
7158;SDS011;63175;52.374;13.132;2022-11-14T14:02:30;21.53;;;15.80;;
7158;SDS011;63175;52.374;13.132;2022-11-14T14:05:20;21.20;;;16.40;;
7158;SDS011;63175;52.374;13.132;2022-11-14T14:10:50;19.43;;;13.73;;
7158;SDS011;63175;52.374;13.132;2022-11-14T14:13:30;21.63;;;15.30;;
7158;SDS011;63175;52.374;13.132;2022-11-14T14:16:09;21.23;;;15.70;;
7158;SDS011;63175;52.374;13.132;2022-11-14T14:18:44;18.43;;;14.23;;
7158;SDS011;63175;52.374;13.132;2022-11-14T14:21:26;19.30;;;15.27;;
7158;SDS011;63175;52.374;13.132;2022-11-14T14:24:03;17.77;;;13.70;;
7158;SDS011;63175;52.374;13.132;2022-11-14T14:26:40;19.40;;;14.63;;
7158;SDS011;63175;52.374;13.132;2022-11-14T14:29:21;21.40;;;16.10;;
7158;SDS011;63175;52.374;13.132;2022-11-14T14:31:51;19.60;;;15.40;;
7158;SDS011;63175;52.374;13.132;2022-11-14T14:34:22;16.63;;;14.10;;
7158;SDS011;63175;52.374;13.132;2022-11-14T14:36:50;23.17;;;15.20;;
7158;SDS011;63175;52.374;13.132;2022-11-14T14:39:19;20.40;;;15.87;;
7158;SDS011;63175;52.374;13.132;2022-11-14T14:41:49;19.20;;;14.10;;
7158;SDS011;63175;52.374;13.132;2022-11-14T14:44:22;17.40;;;14.20;;
7158;SDS011;63175;52.374;13.132;2022-11-14T14:46:52;18.50;;;13.37;;
7158;SDS011;63175;52.374;13.132;2022-11-14T14:49:21;18.40;;;14.27;;
7158;SDS011;63175;52.374;13.132;2022-11-14T14:51:49;17.13;;;12.87;;
7158;SDS011;63175;52.374;13.132;2022-11-14T14:54:20;16.27;;;12.80;;
7158;SDS011;63175;52.374;13.132;2022-11-14T14:56:52;18.73;;;13.87;;
7158;SDS011;63175;52.374;13.132;2022-11-14T14:59:21;19.03;;;12.63;;
7158;SDS011;63175;52.374;13.132;2022-11-14T15:01:49;14.47;;;12.70;;